sensor_id;sensor_type;location;lat;lon;timestamp;P1;P2;P0
74440;PMS7003;62870;54.692;25.284;2022-09-21T00:04:00;15.4;13.4;9
74440;PMS7003;62870;54.692;25.284;2022-09-21T00:08:47;14;12.2;9
74440;PMS7003;62870;54.692;25.284;2022-09-21T00:14:11;14.8;13.4;9
74440;PMS7003;62870;54.692;25.284;2022-09-21T00:18:36;16.4;13.8;10
74440;PMS7003;62870;54.692;25.284;2022-09-21T00:23:25;14.2;12;8.4
74440;PMS7003;62870;54.692;25.284;2022-09-21T00:28:23;11.8;10.2;6.8
74440;PMS7003;62870;54.692;25.284;2022-09-21T00:33:23;8;7.4;5.2
74440;PMS7003;62870;54.692;25.284;2022-09-21T00:38:23;7;6.6;4.6
74440;PMS7003;62870;54.692;25.284;2022-09-21T00:44:42;8.2;7.6;4.8
74440;PMS7003;62870;54.692;25.284;2022-09-21T00:49:11;5.8;5.4;4.2
74440;PMS7003;62870;54.692;25.284;2022-09-21T00:54:13;6.8;5.4;4.2
74440;PMS7003;62870;54.692;25.284;2022-09-21T00:58:29;7;6.5;4.8
74440;PMS7003;62870;54.692;25.284;2022-09-21T01:03:47;9;6.4;4.6
74440;PMS7003;62870;54.692;25.284;2022-09-21T01:09:09;8.6;8.2;5.8
74440;PMS7003;62870;54.692;25.284;2022-09-21T01:14:21;9.6;9.4;6.8
74440;PMS7003;62870;54.692;25.284;2022-09-21T01:18:44;10.6;10;6.4
74440;PMS7003;62870;54.692;25.284;2022-09-21T01:28:36;10.6;9.8;6
74440;PMS7003;62870;54.692;25.284;2022-09-21T01:33:35;9;9;6.4
74440;PMS7003;62870;54.692;25.284;2022-09-21T01:38:36;8;7;4.8
74440;PMS7003;62870;54.692;25.284;2022-09-21T01:44:10;4.8;4.8;3.4
74440;PMS7003;62870;54.692;25.284;2022-09-21T01:48:58;5.2;3.8;2.6
74440;PMS7003;62870;54.692;25.284;2022-09-21T01:53:43;4.4;4;3.2
74440;PMS7003;62870;54.692;25.284;2022-09-21T01:59:15;4.2;3.6;3.2
74440;PMS7003;62870;54.692;25.284;2022-09-21T02:04:00;4.3;3.5;2.8
74440;PMS7003;62870;54.692;25.284;2022-09-21T02:09:11;5.4;3.8;2.8
74440;PMS7003;62870;54.692;25.284;2022-09-21T02:13:25;4.8;4;2.8
74440;PMS7003;62870;54.692;25.284;2022-09-21T02:19:07;5.8;5;3.8
74440;PMS7003;62870;54.692;25.284;2022-09-21T02:24:20;3.6;3.6;3
74440;PMS7003;62870;54.692;25.284;2022-09-21T02:29:09;5.2;4.4;3.2
74440;PMS7003;62870;54.692;25.284;2022-09-21T02:33:26;4.4;3.6;2.6
74440;PMS7003;62870;54.692;25.284;2022-09-21T02:39:03;4.2;3.8;3
74440;PMS7003;62870;54.692;25.284;2022-09-21T02:44:05;3.6;3.4;2.8
74440;PMS7003;62870;54.692;25.284;2022-09-21T02:48:52;3.6;3;2.4
74440;PMS7003;62870;54.692;25.284;2022-09-21T02:54:03;3;3;2.6
74440;PMS7003;62870;54.692;25.284;2022-09-21T02:59:19;4.4;3.6;2.8
74440;PMS7003;62870;54.692;25.284;2022-09-21T03:03:37;3.8;2.8;2.3
74440;PMS7003;62870;54.692;25.284;2022-09-21T03:08:49;4.2;3.4;2.8
74440;PMS7003;62870;54.692;25.284;2022-09-21T03:14:15;4;3.2;2.4
74440;PMS7003;62870;54.692;25.284;2022-09-21T03:19:15;2.8;2.8;2.2
74440;PMS7003;62870;54.692;25.284;2022-09-21T03:24:15;3.4;3;2
74440;PMS7003;62870;54.692;25.284;2022-09-21T03:28:25;4.4;3.6;3.2
74440;PMS7003;62870;54.692;25.284;2022-09-21T03:34:03;3.6;3;2.4
74440;PMS7003;62870;54.692;25.284;2022-09-21T03:39:13;3.2;3.2;2.6
74440;PMS7003;62870;54.692;25.284;2022-09-21T03:43:47;3.2;3.2;2
74440;PMS7003;62870;54.692;25.284;2022-09-21T03:48:35;2.8;2.6;2.4
74440;PMS7003;62870;54.692;25.284;2022-09-21T03:53:25;3.8;3.2;2.6
74440;PMS7003;62870;54.692;25.284;2022-09-21T03:58:25;4.2;3.8;2.8
74440;PMS7003;62870;54.692;25.284;2022-09-21T04:03:47;3.3;3.3;2.5
74440;PMS7003;62870;54.692;25.284;2022-09-21T04:08:47;4;3.4;3
74440;PMS7003;62870;54.692;25.284;2022-09-21T04:14:13;3.6;3.2;2.4
74440;PMS7003;62870;54.692;25.284;2022-09-21T04:18:59;3.4;3.4;2.4
74440;PMS7003;62870;54.692;25.284;2022-09-21T04:23:35;3.2;2.8;2.2
74440;PMS7003;62870;54.692;25.284;2022-09-21T04:29:13;3.8;3.2;2.4
74440;PMS7003;62870;54.692;25.284;2022-09-21T04:34:17;3.6;3.6;3.2
74440;PMS7003;62870;54.692;25.284;2022-09-21T04:39:13;5.4;3.8;2.8
74440;PMS7003;62870;54.692;25.284;2022-09-21T04:43:49;4.2;4;3.2
74440;PMS7003;62870;54.692;25.284;2022-09-21T04:48:37;3.6;3.6;2.8
74440;PMS7003;62870;54.692;25.284;2022-09-21T04:54:15;4.2;3.8;3.2
74440;PMS7003;62870;54.692;25.284;2022-09-21T04:59:03;5.2;4.6;3.8
74440;PMS7003;62870;54.692;25.284;2022-09-21T05:03:43;3.5;3.3;2.5
74440;PMS7003;62870;54.692;25.284;2022-09-21T05:08:59;4.2;3.8;3
74440;PMS7003;62870;54.692;25.284;2022-09-21T05:14:01;4.4;4.4;3.6
74440;PMS7003;62870;54.692;25.284;2022-09-21T05:19:01;4.8;4.6;3.6
74440;PMS7003;62870;54.692;25.284;2022-09-21T05:24:03;4;3.8;3
74440;PMS7003;62870;54.692;25.284;2022-09-21T05:29:01;5.2;4.8;4
74440;PMS7003;62870;54.692;25.284;2022-09-21T05:33:25;4.4;3.6;3.4
74440;PMS7003;62870;54.692;25.284;2022-09-21T05:38:25;5.2;4.8;4
74440;PMS7003;62870;54.692;25.284;2022-09-21T05:44:15;4;4;3.4
74440;PMS7003;62870;54.692;25.284;2022-09-21T05:49:17;4;3.4;2.6
74440;PMS7003;62870;54.692;25.284;2022-09-21T05:54:03;4;3.8;3.6
74440;PMS7003;62870;54.692;25.284;2022-09-21T05:58:53;4.6;4;3
74440;PMS7003;62870;54.692;25.284;2022-09-21T06:04:15;3.8;3.8;3.3
74440;PMS7003;62870;54.692;25.284;2022-09-21T06:09:15;3.8;3.4;2.6
74440;PMS7003;62870;54.692;25.284;2022-09-21T06:13:49;4.2;3.8;3.2
74440;PMS7003;62870;54.692;25.284;2022-09-21T06:18:25;4.4;3.8;3.2
74440;PMS7003;62870;54.692;25.284;2022-09-21T06:23:37;4.6;4;3
74440;PMS7003;62870;54.692;25.284;2022-09-21T06:28:25;6;4.8;3.4
74440;PMS7003;62870;54.692;25.284;2022-09-21T06:33:35;4;4;3
74440;PMS7003;62870;54.692;25.284;2022-09-21T06:38:49;4.8;4.4;3.8
74440;PMS7003;62870;54.692;25.284;2022-09-21T06:44:15;4.4;4.4;3.4
74440;PMS7003;62870;54.692;25.284;2022-09-21T06:49:01;4.4;4;3
74440;PMS7003;62870;54.692;25.284;2022-09-21T06:53:26;4.8;4;3.2
74440;PMS7003;62870;54.692;25.284;2022-09-21T06:59:13;4.6;3.6;2.6
74440;PMS7003;62870;54.692;25.284;2022-09-21T07:03:42;4.6;4.2;3.6
74440;PMS7003;62870;54.692;25.284;2022-09-21T07:09:13;3.8;3.8;3
74440;PMS7003;62870;54.692;25.284;2022-09-21T07:13:25;4;4;3
74440;PMS7003;62870;54.692;25.284;2022-09-21T07:18:49;4;3.4;2.6
74440;PMS7003;62870;54.692;25.284;2022-09-21T07:24:15;4.4;3.6;2.8
74440;PMS7003;62870;54.692;25.284;2022-09-21T07:29:01;4.4;4.2;3
74440;PMS7003;62870;54.692;25.284;2022-09-21T07:33:49;4;3.6;2.6
74440;PMS7003;62870;54.692;25.284;2022-09-21T07:39:01;3.4;3.2;2.8
74440;PMS7003;62870;54.692;25.284;2022-09-21T07:44:03;3.8;3.5;3
74440;PMS7003;62870;54.692;25.284;2022-09-21T07:48:53;4.8;4.5;3.8
74440;PMS7003;62870;54.692;25.284;2022-09-21T07:53:27;3.8;3.8;2.8
74440;PMS7003;62870;54.692;25.284;2022-09-21T07:59:17;3.4;3.4;2.8
74440;PMS7003;62870;54.692;25.284;2022-09-21T08:03:37;3.6;3.6;2.8
74440;PMS7003;62870;54.692;25.284;2022-09-21T08:08:39;4.2;3.4;2.4
74440;PMS7003;62870;54.692;25.284;2022-09-21T08:14:13;3.6;3.2;2.8
74440;PMS7003;62870;54.692;25.284;2022-09-21T08:19:13;3.2;3.2;2.2
74440;PMS7003;62870;54.692;25.284;2022-09-21T08:24:13;3.3;3;2.3
74440;PMS7003;62870;54.692;25.284;2022-09-21T08:28:45;4;3.8;2.8
74440;PMS7003;62870;54.692;25.284;2022-09-21T08:34:03;4.8;4;3.2
74440;PMS7003;62870;54.692;25.284;2022-09-21T08:39:13;3.5;3;2.3
74440;PMS7003;62870;54.692;25.284;2022-09-21T08:43:52;3.8;3.4;2.6
74440;PMS7003;62870;54.692;25.284;2022-09-21T08:48:57;2.4;2.4;1.8
74440;PMS7003;62870;54.692;25.284;2022-09-21T08:55:18;3;2.6;2
74440;PMS7003;62870;54.692;25.284;2022-09-21T08:58:39;3;3;2.2
74440;PMS7003;62870;54.692;25.284;2022-09-21T09:08:53;3.2;2.6;1.8
74440;PMS7003;62870;54.692;25.284;2022-09-21T09:14:13;4;3.4;2.8
74440;PMS7003;62870;54.692;25.284;2022-09-21T09:19:07;3.4;3.2;2.6
74440;PMS7003;62870;54.692;25.284;2022-09-21T09:23:51;4.3;4.3;3.7
74440;PMS7003;62870;54.692;25.284;2022-09-21T09:29:42;5;4.6;3.6
74440;PMS7003;62870;54.692;25.284;2022-09-21T09:34:02;5.2;4.4;3.2
74440;PMS7003;62870;54.692;25.284;2022-09-21T09:39:15;6;4.2;3.6
74440;PMS7003;62870;54.692;25.284;2022-09-21T09:48:46;5.6;4.4;3.4
74440;PMS7003;62870;54.692;25.284;2022-09-21T09:53:25;3.6;3.6;2.8
74440;PMS7003;62870;54.692;25.284;2022-09-21T09:59:46;5.6;4.2;3.6
74440;PMS7003;62870;54.692;25.284;2022-09-21T10:04:08;4.3;3.5;2.8
74440;PMS7003;62870;54.692;25.284;2022-09-21T10:09:43;4.8;4.6;3.8
74440;PMS7003;62870;54.692;25.284;2022-09-21T10:14:09;3.5;3.5;2.8
74440;PMS7003;62870;54.692;25.284;2022-09-21T10:19:03;4;3.8;3.2
74440;PMS7003;62870;54.692;25.284;2022-09-21T10:24:12;4.8;4.6;3.4
74440;PMS7003;62870;54.692;25.284;2022-09-21T10:28:55;4;3.4;3
74440;PMS7003;62870;54.692;25.284;2022-09-21T10:33:42;3.6;3.6;2.8
74440;PMS7003;62870;54.692;25.284;2022-09-21T10:38:35;4;3.8;3.4
74440;PMS7003;62870;54.692;25.284;2022-09-21T10:43:49;3.4;3.4;2.6
74440;PMS7003;62870;54.692;25.284;2022-09-21T10:49:14;3.2;2.8;2.4
74440;PMS7003;62870;54.692;25.284;2022-09-21T10:54:01;3.4;3.2;2.8
74440;PMS7003;62870;54.692;25.284;2022-09-21T10:59:21;3.6;3.6;3
74440;PMS7003;62870;54.692;25.284;2022-09-21T11:03:48;4;3;2.8
74440;PMS7003;62870;54.692;25.284;2022-09-21T11:09:04;4.4;4.2;3.4
74440;PMS7003;62870;54.692;25.284;2022-09-21T11:14:15;3.2;3;2.4
74440;PMS7003;62870;54.692;25.284;2022-09-21T11:18:33;3.4;3.2;2.6
74440;PMS7003;62870;54.692;25.284;2022-09-21T11:23:43;2.4;2.2;1.8
74440;PMS7003;62870;54.692;25.284;2022-09-21T11:29:02;2.4;2.2;1.8
74440;PMS7003;62870;54.692;25.284;2022-09-21T11:33:59;2.8;2.4;2
74440;PMS7003;62870;54.692;25.284;2022-09-21T11:38:42;2.2;2.2;1.8
74440;PMS7003;62870;54.692;25.284;2022-09-21T11:49:05;2.6;2.2;2
74440;PMS7003;62870;54.692;25.284;2022-09-21T11:58:52;3;2.4;2
74440;PMS7003;62870;54.692;25.284;2022-09-21T12:04:21;2.8;2.3;1.5
74440;PMS7003;62870;54.692;25.284;2022-09-21T12:09:20;2.8;2.6;2.4
74440;PMS7003;62870;54.692;25.284;2022-09-21T12:13:35;3.2;3;2.8
74440;PMS7003;62870;54.692;25.284;2022-09-21T12:18:45;2.6;2.6;2.2
74440;PMS7003;62870;54.692;25.284;2022-09-21T12:23:40;3.4;2.8;2.6
74440;PMS7003;62870;54.692;25.284;2022-09-21T12:29:18;2.6;2.4;2.2
74440;PMS7003;62870;54.692;25.284;2022-09-21T12:34:08;2.2;1.8;1.8
74440;PMS7003;62870;54.692;25.284;2022-09-21T12:39:01;1.2;1.2;0.8
74440;PMS7003;62870;54.692;25.284;2022-09-21T12:44:01;0;0;0
74440;PMS7003;62870;54.692;25.284;2022-09-21T12:49:17;0.2;0;0
74440;PMS7003;62870;54.692;25.284;2022-09-21T12:53:53;0.2;0.2;0.2
74440;PMS7003;62870;54.692;25.284;2022-09-21T12:59:05;0.2;0;0
74440;PMS7003;62870;54.692;25.284;2022-09-21T13:08:51;0.2;0;0
74440;PMS7003;62870;54.692;25.284;2022-09-21T13:13:57;0.8;0.8;0.4
74440;PMS7003;62870;54.692;25.284;2022-09-21T13:19:20;0.2;0.2;0
74440;PMS7003;62870;54.692;25.284;2022-09-21T13:24:02;0.2;0;0
74440;PMS7003;62870;54.692;25.284;2022-09-21T13:34:49;0.8;0.4;0.4
74440;PMS7003;62870;54.692;25.284;2022-09-21T13:39:16;0.6;0;0
74440;PMS7003;62870;54.692;25.284;2022-09-21T13:44:17;1;0.2;0.2
74440;PMS7003;62870;54.692;25.284;2022-09-21T13:48:37;0;0;0
74440;PMS7003;62870;54.692;25.284;2022-09-21T13:53:39;0.3;0.3;0
74440;PMS7003;62870;54.692;25.284;2022-09-21T13:59:19;0.5;0.5;0.5
74440;PMS7003;62870;54.692;25.284;2022-09-21T14:03:38;0.6;0.4;0.4
74440;PMS7003;62870;54.692;25.284;2022-09-21T14:08:50;0.2;0;0
74440;PMS7003;62870;54.692;25.284;2022-09-21T14:14:15;0;0;0
74440;PMS7003;62870;54.692;25.284;2022-09-21T14:28:48;0.8;0.4;0.2
74440;PMS7003;62870;54.692;25.284;2022-09-21T14:34:15;0.4;0.2;0
74440;PMS7003;62870;54.692;25.284;2022-09-21T14:38:58;0.8;0.8;0.2
74440;PMS7003;62870;54.692;25.284;2022-09-21T14:44:16;0.2;0.2;0.2
74440;PMS7003;62870;54.692;25.284;2022-09-21T14:48:42;0.6;0.4;0.4
74440;PMS7003;62870;54.692;25.284;2022-09-21T14:53:31;0.8;0.8;0.8
74440;PMS7003;62870;54.692;25.284;2022-09-21T14:59:33;1;0.6;0.6
74440;PMS7003;62870;54.692;25.284;2022-09-21T15:14:08;1.2;1;1
74440;PMS7003;62870;54.692;25.284;2022-09-21T15:18:59;1.4;0.8;0.6
74440;PMS7003;62870;54.692;25.284;2022-09-21T15:23:49;1.2;1.2;1
74440;PMS7003;62870;54.692;25.284;2022-09-21T15:28:53;1.2;1;1
74440;PMS7003;62870;54.692;25.284;2022-09-21T15:34:08;1.6;1.4;1.4
74440;PMS7003;62870;54.692;25.284;2022-09-21T15:38:26;1.2;1.2;1.2
74440;PMS7003;62870;54.692;25.284;2022-09-21T15:43:37;1.8;1.8;1.2
74440;PMS7003;62870;54.692;25.284;2022-09-21T15:49:12;2.6;2.2;2
74440;PMS7003;62870;54.692;25.284;2022-09-21T15:54:08;2.8;2.2;1.8
74440;PMS7003;62870;54.692;25.284;2022-09-21T15:59:09;2.3;2;1.8
74440;PMS7003;62870;54.692;25.284;2022-09-21T16:03:47;2;2;1.6
74440;PMS7003;62870;54.692;25.284;2022-09-21T16:09:27;1.8;1.8;1.4
74440;PMS7003;62870;54.692;25.284;2022-09-21T16:14:13;3.6;2.8;2.2
74440;PMS7003;62870;54.692;25.284;2022-09-21T16:18:29;2.6;2.4;2
74440;PMS7003;62870;54.692;25.284;2022-09-21T16:23:37;2;1.8;1.4
74440;PMS7003;62870;54.692;25.284;2022-09-21T16:28:33;2.6;2.4;2
74440;PMS7003;62870;54.692;25.284;2022-09-21T16:33:42;3.8;3.6;2.8
74440;PMS7003;62870;54.692;25.284;2022-09-21T16:38:35;4;3.8;2.8
74440;PMS7003;62870;54.692;25.284;2022-09-21T16:43:49;3.2;2.8;2.4
74440;PMS7003;62870;54.692;25.284;2022-09-21T16:49:12;1.8;1.4;1.2
74440;PMS7003;62870;54.692;25.284;2022-09-21T16:54:14;2;1.4;1
74440;PMS7003;62870;54.692;25.284;2022-09-21T16:58:37;1.8;1.3;1
74440;PMS7003;62870;54.692;25.284;2022-09-21T17:04:11;2;2;1.3
74440;PMS7003;62870;54.692;25.284;2022-09-21T17:08:55;2.8;2;1.4
74440;PMS7003;62870;54.692;25.284;2022-09-21T17:14:13;2.4;2.4;1.6
74440;PMS7003;62870;54.692;25.284;2022-09-21T17:18:37;2.4;2.4;1.8
74440;PMS7003;62870;54.692;25.284;2022-09-21T17:23:25;2.4;1.8;1.8
74440;PMS7003;62870;54.692;25.284;2022-09-21T17:29:19;4.6;4.4;3.6
74440;PMS7003;62870;54.692;25.284;2022-09-21T17:34:07;4.6;3.8;3.2
74440;PMS7003;62870;54.692;25.284;2022-09-21T17:38:49;4.4;4.4;3.6
74440;PMS7003;62870;54.692;25.284;2022-09-21T17:44:05;4.2;4.2;3.4
74440;PMS7003;62870;54.692;25.284;2022-09-21T17:48:59;5.2;4.6;3.6
74440;PMS7003;62870;54.692;25.284;2022-09-21T17:53:49;4;4;3.2
74440;PMS7003;62870;54.692;25.284;2022-09-21T17:58:40;4;4;3.8
74440;PMS7003;62870;54.692;25.284;2022-09-21T18:04:11;3.8;3.6;3
74440;PMS7003;62870;54.692;25.284;2022-09-21T18:08:27;4.6;4.2;3.2
74440;PMS7003;62870;54.692;25.284;2022-09-21T18:13:27;5.6;4.4;3.8
74440;PMS7003;62870;54.692;25.284;2022-09-21T18:19:15;4.8;4;3.4
74440;PMS7003;62870;54.692;25.284;2022-09-21T18:24:20;4.6;3.8;3
74440;PMS7003;62870;54.692;25.284;2022-09-21T18:29:18;5.8;5;4.2
74440;PMS7003;62870;54.692;25.284;2022-09-21T18:33:28;7.8;7.4;5.2
74440;PMS7003;62870;54.692;25.284;2022-09-21T18:40:49;8.4;8;5.4
74440;PMS7003;62870;54.692;25.284;2022-09-21T18:44:02;8.6;7.8;5.6
74440;PMS7003;62870;54.692;25.284;2022-09-21T18:48:33;7.6;7.2;5.2
74440;PMS7003;62870;54.692;25.284;2022-09-21T18:53:52;7.8;6.8;5.2
74440;PMS7003;62870;54.692;25.284;2022-09-21T18:58:51;7.5;6.8;4.8
74440;PMS7003;62870;54.692;25.284;2022-09-21T19:03:25;6.2;5.2;4
74440;PMS7003;62870;54.692;25.284;2022-09-21T19:08:38;4;4;3.2
74440;PMS7003;62870;54.692;25.284;2022-09-21T19:13:44;5.2;4.6;3.6
74440;PMS7003;62870;54.692;25.284;2022-09-21T19:19:48;4.4;4.4;4
74440;PMS7003;62870;54.692;25.284;2022-09-21T19:24:03;4;4;3.2
74440;PMS7003;62870;54.692;25.284;2022-09-21T19:29:21;4.4;4;2.8
74440;PMS7003;62870;54.692;25.284;2022-09-21T19:33:28;3.8;3.8;3
74440;PMS7003;62870;54.692;25.284;2022-09-21T19:39:10;3.8;3.6;3
74440;PMS7003;62870;54.692;25.284;2022-09-21T19:44:14;3.3;3.3;2.8
74440;PMS7003;62870;54.692;25.284;2022-09-21T19:49:04;3.8;3.2;3
74440;PMS7003;62870;54.692;25.284;2022-09-21T19:53:49;3.2;3;2.6
74440;PMS7003;62870;54.692;25.284;2022-09-21T19:58:25;3.2;3.2;2.6
74440;PMS7003;62870;54.692;25.284;2022-09-21T20:04:12;4.8;4.3;3
74440;PMS7003;62870;54.692;25.284;2022-09-21T20:09:00;4.4;4.4;3.4
74440;PMS7003;62870;54.692;25.284;2022-09-21T20:14:07;4.4;3.4;2.2
74440;PMS7003;62870;54.692;25.284;2022-09-21T20:19:35;2.8;2.6;2
74440;PMS7003;62870;54.692;25.284;2022-09-21T20:23:57;3.4;3.4;2.8
74440;PMS7003;62870;54.692;25.284;2022-09-21T20:28:50;3.8;2.8;2.4
74440;PMS7003;62870;54.692;25.284;2022-09-21T20:34:01;4.4;4;3
74440;PMS7003;62870;54.692;25.284;2022-09-21T20:38:35;4;3.2;2.4
74440;PMS7003;62870;54.692;25.284;2022-09-21T20:43:37;3.4;2.6;2.4
74440;PMS7003;62870;54.692;25.284;2022-09-21T20:48:25;3.8;3;2.3
74440;PMS7003;62870;54.692;25.284;2022-09-21T20:54:09;2.8;2.5;2
74440;PMS7003;62870;54.692;25.284;2022-09-21T20:58:57;3.2;2.8;2
74440;PMS7003;62870;54.692;25.284;2022-09-21T21:03:33;3;2.8;2.4
74440;PMS7003;62870;54.692;25.284;2022-09-21T21:08:25;3.4;3.2;2.6
74440;PMS7003;62870;54.692;25.284;2022-09-21T21:13:55;4.6;4.2;3
74440;PMS7003;62870;54.692;25.284;2022-09-21T21:19:09;3.6;3.2;2.6
74440;PMS7003;62870;54.692;25.284;2022-09-21T21:23:37;4;3.8;3.4
74440;PMS7003;62870;54.692;25.284;2022-09-21T21:28:37;3.4;3.4;2.8
74440;PMS7003;62870;54.692;25.284;2022-09-21T21:33:25;3.6;3.2;2.6
74440;PMS7003;62870;54.692;25.284;2022-09-21T21:38:25;2.6;2.4;1.8
74440;PMS7003;62870;54.692;25.284;2022-09-21T21:44:01;2.6;2.6;2.4
74440;PMS7003;62870;54.692;25.284;2022-09-21T21:48:25;2.5;2.3;2
74440;PMS7003;62870;54.692;25.284;2022-09-21T21:53:57;3.2;2.4;2
74440;PMS7003;62870;54.692;25.284;2022-09-21T21:59:11;2.8;2.4;1.4
74440;PMS7003;62870;54.692;25.284;2022-09-21T22:03:51;2.2;2.2;1.6
74440;PMS7003;62870;54.692;25.284;2022-09-21T22:09:09;2.8;2.6;1.8
74440;PMS7003;62870;54.692;25.284;2022-09-21T22:14:11;2.8;2.6;2
74440;PMS7003;62870;54.692;25.284;2022-09-21T22:18:35;2.6;2.6;2.2
74440;PMS7003;62870;54.692;25.284;2022-09-21T22:23:39;2.4;1.8;1.6
74440;PMS7003;62870;54.692;25.284;2022-09-21T22:28:25;3.2;2.6;2
74440;PMS7003;62870;54.692;25.284;2022-09-21T22:34:09;2.4;2.2;1.8
74440;PMS7003;62870;54.692;25.284;2022-09-21T22:39:02;2.8;2.6;1.6
74440;PMS7003;62870;54.692;25.284;2022-09-21T22:43:56;2.8;2.2;2
74440;PMS7003;62870;54.692;25.284;2022-09-21T22:48:57;2.8;2;1.8
74440;PMS7003;62870;54.692;25.284;2022-09-21T22:53:53;2.2;2.2;1.2
74440;PMS7003;62870;54.692;25.284;2022-09-21T22:58:23;2;1.6;1.4
74440;PMS7003;62870;54.692;25.284;2022-09-21T23:03:56;1.6;1.6;1.2
74440;PMS7003;62870;54.692;25.284;2022-09-21T23:08:33;2;1.6;1.4
74440;PMS7003;62870;54.692;25.284;2022-09-21T23:13:35;2.2;2;1.8
74440;PMS7003;62870;54.692;25.284;2022-09-21T23:18:23;3;2.2;1.2
74440;PMS7003;62870;54.692;25.284;2022-09-21T23:24:05;1.8;1.6;1.4
74440;PMS7003;62870;54.692;25.284;2022-09-21T23:29:09;2;1.8;1.4
74440;PMS7003;62870;54.692;25.284;2022-09-21T23:34:06;1.8;1.2;0.8
74440;PMS7003;62870;54.692;25.284;2022-09-21T23:38:23;2.2;1.8;1.4
74440;PMS7003;62870;54.692;25.284;2022-09-21T23:44:07;2.6;2.2;2
74440;PMS7003;62870;54.692;25.284;2022-09-21T23:49:07;2.5;1.8;1.5
74440;PMS7003;62870;54.692;25.284;2022-09-21T23:53:49;2.6;2.4;1.8
74440;PMS7003;62870;54.692;25.284;2022-09-21T23:58:57;2.8;2.4;1.2
